Time;durP1;ratioP1;P1;durP2;ratioP2;P2;SDS_P1;SDS_P2;PMS_P1;PMS_P2;Temp;Humidity;BMP_temperature;BMP_pressure;BME280_temperature;BME280_humidity;BME280_pressure;Samples;Min_cycle;Max_cycle;Signal;HPM_P1;HPM_P2
2023/04/01 00:00:09;;;;;;;12.18;3.88;;;;;;;;;;1035409;28;20034;-20
2023/04/01 00:00:40;;;;;;;26.23;5.22;;;;;;;;;;1035333;28;20030;-18
2023/04/01 00:01:16;;;;;;;20.17;4.57;;;;;;;;;;1035466;28;20041;-16
2023/04/01 00:01:46;;;;;;;10.45;5.15;;;;;;;;;;1034916;28;20390;-19
2023/04/01 00:02:17;;;;;;;8.35;4.65;;;;;;;;;;1035569;28;20113;-20
2023/04/01 00:02:47;;;;;;;6.85;4.57;;;;;;;;;;1035405;28;20033;-20
2023/04/01 00:03:18;;;;;;;13.55;5.43;;;;;;;;;;1035571;28;20032;-19
2023/04/01 00:03:49;;;;;;;21.42;4.80;;;;;;;;;;1035092;28;20010;-22
2023/04/01 00:04:20;;;;;;;10.07;4.65;;;;;;;;;;1035515;28;20021;-19
2023/04/01 00:04:50;;;;;;;19.38;5.18;;;;;;;;;;1035357;28;20591;-21
2023/04/01 00:05:21;;;;;;;11.15;3.30;;;;;;;;;;1035669;28;20033;-18
2023/04/01 00:05:51;;;;;;;12.75;7.82;;;;;;;;;;1034356;28;20524;-22
2023/04/01 00:06:22;;;;;;;7.05;4.00;;;;;;;;;;1034433;28;20025;-20
2023/04/01 00:06:52;;;;;;;7.45;4.50;;;;;;;;;;1035390;28;20121;-18
2023/04/01 00:07:23;;;;;;;5.93;3.53;;;;;;;;;;1035484;28;20026;-21
2023/04/01 00:07:53;;;;;;;10.75;5.10;;;;;;;;;;1035316;28;20057;-19
2023/04/01 00:08:25;;;;;;;10.35;5.85;;;;;;;;;;1035467;28;20018;-20
2023/04/01 00:08:55;;;;;;;8.15;5.07;;;;;;;;;;1035422;28;20045;-18
2023/04/01 00:09:26;;;;;;;10.93;4.22;;;;;;;;;;1035366;28;20022;-21
2023/04/01 00:09:56;;;;;;;20.58;5.22;;;;;;;;;;1035348;28;20378;-21
2023/04/01 00:10:27;;;;;;;13.38;3.90;;;;;;;;;;1035158;28;20029;-19
2023/04/01 00:10:57;;;;;;;5.95;4.07;;;;;;;;;;1035580;28;20096;-18
2023/04/01 00:11:28;;;;;;;7.43;4.10;;;;;;;;;;1035821;28;20029;-21
2023/04/01 00:11:58;;;;;;;19.02;3.25;;;;;;;;;;1036592;28;20032;-21
2023/04/01 00:12:28;;;;;;;13.98;5.15;;;;;;;;;;1034973;28;20634;-20
2023/04/01 00:12:59;;;;;;;12.15;5.97;;;;;;;;;;1035377;28;20436;-22
2023/04/01 00:13:29;;;;;;;12.07;6.13;;;;;;;;;;1034217;28;20022;-19
2023/04/01 00:14:00;;;;;;;11.98;4.70;;;;;;;;;;1035637;28;20076;-20
2023/04/01 00:14:30;;;;;;;7.50;5.20;;;;;;;;;;1035238;28;20036;-21
2023/04/01 00:15:01;;;;;;;22.60;4.20;;;;;;;;;;1035631;28;20477;-19
2023/04/01 00:15:32;;;;;;;13.25;4.68;;;;;;;;;;1035195;28;20194;-17
2023/04/01 00:16:04;;;;;;;15.73;5.47;;;;;;;;;;1035619;28;20147;-19
2023/04/01 00:16:34;;;;;;;17.38;4.50;;;;;;;;;;1035272;28;20393;-20
2023/04/01 00:17:04;;;;;;;11.48;7.32;;;;;;;;;;1035511;28;20033;-22
2023/04/01 00:17:35;;;;;;;8.90;3.75;;;;;;;;;;1035109;28;20385;-19
2023/04/01 00:18:06;;;;;;;9.90;4.93;;;;;;;;;;1035517;28;20022;-17
2023/04/01 00:18:36;;;;;;;8.40;4.03;;;;;;;;;;1034079;28;20473;-21
2023/04/01 00:19:07;;;;;;;12.98;5.35;;;;;;;;;;1035613;28;20021;-20
2023/04/01 00:19:37;;;;;;;11.60;5.20;;;;;;;;;;1035203;28;20057;-20
2023/04/01 00:20:09;;;;;;;7.00;3.97;;;;;;;;;;1035550;28;20104;-23
2023/04/01 00:20:43;;;;;;;20.65;5.90;;;;;;;;;;1035602;28;20504;-18
2023/04/01 00:21:14;;;;;;;9.10;5.95;;;;;;;;;;1036240;28;20026;-16
2023/04/01 00:21:45;;;;;;;13.90;6.70;;;;;;;;;;1036069;28;20497;-21
2023/04/01 00:22:15;;;;;;;12.45;6.25;;;;;;;;;;1035636;28;20022;-21
2023/04/01 00:22:46;;;;;;;11.90;5.10;;;;;;;;;;1036076;28;20083;-22
2023/04/01 00:23:17;;;;;;;21.52;6.10;;;;;;;;;;1036198;28;20105;-21
2023/04/01 00:23:47;;;;;;;18.50;6.47;;;;;;;;;;1036045;28;20429;-18
2023/04/01 00:24:18;;;;;;;20.35;8.15;;;;;;;;;;1036317;28;20026;-16
2023/04/01 00:24:49;;;;;;;25.52;5.57;;;;;;;;;;1035834;28;20061;-16
2023/04/01 00:25:19;;;;;;;14.90;5.78;;;;;;;;;;1036291;28;20061;-19
2023/04/01 00:25:50;;;;;;;4.85;4.30;;;;;;;;;;1035946;28;20149;-19
2023/04/01 00:26:21;;;;;;;8.90;6.72;;;;;;;;;;1036298;28;20037;-19
2023/04/01 00:26:51;;;;;;;17.90;6.35;;;;;;;;;;1035025;28;20026;-20
2023/04/01 00:27:22;;;;;;;8.13;4.22;;;;;;;;;;1035871;28;20452;-18
2023/04/01 00:27:52;;;;;;;7.32;4.20;;;;;;;;;;1035946;28;20036;-19
2023/04/01 00:28:23;;;;;;;13.73;4.88;;;;;;;;;;1036137;28;20469;-22
2023/04/01 00:28:53;;;;;;;7.50;4.65;;;;;;;;;;1036086;28;20026;-21
2023/04/01 00:29:28;;;;;;;6.85;4.55;;;;;;;;;;1036263;28;20492;-23
2023/04/01 00:29:58;;;;;;;17.65;5.43;;;;;;;;;;1036235;28;20068;-19
2023/04/01 00:30:29;;;;;;;8.43;4.28;;;;;;;;;;1036076;28;20028;-21
2023/04/01 00:31:03;;;;;;;7.78;4.53;;;;;;;;;;1035679;28;20389;-19
2023/04/01 00:31:34;;;;;;;8.25;5.15;;;;;;;;;;1035830;28;20009;-22
2023/04/01 00:32:04;;;;;;;10.32;6.00;;;;;;;;;;1036323;28;20100;-21
2023/04/01 00:32:35;;;;;;;18.85;5.80;;;;;;;;;;1035919;28;20026;-20
2023/04/01 00:33:06;;;;;;;12.60;6.90;;;;;;;;;;1036183;28;20017;-20
2023/04/01 00:33:36;;;;;;;9.20;5.22;;;;;;;;;;1034825;28;20026;-20
2023/04/01 00:34:07;;;;;;;24.73;5.22;;;;;;;;;;1035253;28;20053;-22
2023/04/01 00:34:37;;;;;;;13.95;7.32;;;;;;;;;;1036070;28;20465;-20
2023/04/01 00:35:08;;;;;;;33.88;5.03;;;;;;;;;;1036124;28;20120;-19
2023/04/01 00:35:39;;;;;;;7.80;4.68;;;;;;;;;;1035985;28;20484;-20
2023/04/01 00:36:13;;;;;;;11.63;5.70;;;;;;;;;;1036210;28;20429;-19
2023/04/01 00:36:44;;;;;;;8.40;5.50;;;;;;;;;;1035921;28;20045;-20
2023/04/01 00:37:14;;;;;;;10.85;4.25;;;;;;;;;;1036074;28;20505;-19
2023/04/01 00:37:45;;;;;;;14.50;4.10;;;;;;;;;;1035313;28;20030;-20
2023/04/01 00:38:16;;;;;;;8.80;5.30;;;;;;;;;;1035659;28;20415;-20
2023/04/01 00:38:47;;;;;;;17.20;6.20;;;;;;;;;;1035896;28;20037;-22
2023/04/01 00:39:17;;;;;;;8.15;5.00;;;;;;;;;;1036209;28;20053;-22
2023/04/01 00:39:48;;;;;;;9.35;5.38;;;;;;;;;;1035880;28;20386;-20
2023/04/01 00:40:29;;;;;;;7.32;3.67;;;;;;;;;;1036175;28;20026;-21
2023/04/01 00:40:59;;;;;;;14.07;6.22;;;;;;;;;;1036323;28;20424;-20
2023/04/01 00:41:30;;;;;;;8.80;5.45;;;;;;;;;;1035391;28;20022;-22
2023/04/01 00:42:01;;;;;;;8.18;5.28;;;;;;;;;;1036155;28;20026;-19
2023/04/01 00:42:31;;;;;;;11.68;6.05;;;;;;;;;;1035552;28;20200;-19
2023/04/01 00:43:02;;;;;;;9.93;6.05;;;;;;;;;;1036272;28;20018;-19
2023/04/01 00:43:33;;;;;;;8.45;4.38;;;;;;;;;;1035658;28;20030;-22
2023/04/01 00:44:18;;;;;;;24.73;5.82;;;;;;;;;;1036028;28;20022;-21
2023/04/01 00:44:50;;;;;;;12.75;5.72;;;;;;;;;;1035856;28;20029;-21
2023/04/01 00:45:31;;;;;;;13.95;5.43;;;;;;;;;;1036020;28;20486;-19
2023/04/01 00:46:02;;;;;;;7.55;5.05;;;;;;;;;;1036102;28;20024;-18
2023/04/01 00:46:32;;;;;;;14.57;6.47;;;;;;;;;;1035773;28;20052;-18
2023/04/01 00:47:03;;;;;;;9.07;4.03;;;;;;;;;;1036128;28;20075;-21
2023/04/01 00:47:34;;;;;;;16.45;5.78;;;;;;;;;;1035704;28;20109;-21
2023/04/01 00:48:07;;;;;;;11.23;4.80;;;;;;;;;;1035885;28;20018;-19
2023/04/01 00:48:55;;;;;;;31.33;7.50;;;;;;;;;;1035003;28;20132;-21
2023/04/01 00:49:28;;;;;;;16.15;5.80;;;;;;;;;;1035488;28;20161;-19
2023/04/01 00:49:59;;;;;;;10.15;4.28;;;;;;;;;;1036109;28;20493;-18
2023/04/01 00:50:30;;;;;;;23.10;5.30;;;;;;;;;;1034814;28;20125;-19
2023/04/01 00:51:04;;;;;;;9.98;5.30;;;;;;;;;;1035958;28;20072;-21
2023/04/01 00:51:36;;;;;;;12.32;7.78;;;;;;;;;;1035256;28;20112;-22
2023/04/01 00:52:08;;;;;;;18.45;4.25;;;;;;;;;;1035817;28;20025;-22
2023/04/01 00:52:38;;;;;;;11.38;4.57;;;;;;;;;;1035919;28;20401;-21
2023/04/01 00:53:09;;;;;;;19.50;6.57;;;;;;;;;;1036229;28;20064;-19
2023/04/01 00:53:41;;;;;;;9.15;5.20;;;;;;;;;;1035878;28;20176;-19
2023/04/01 00:54:13;;;;;;;11.52;6.72;;;;;;;;;;1036135;28;20030;-20
2023/04/01 00:54:45;;;;;;;16.73;6.22;;;;;;;;;;1035973;28;20014;-17
2023/04/01 00:55:16;;;;;;;12.07;5.13;;;;;;;;;;1035657;28;20068;-16
2023/04/01 00:55:53;;;;;;;12.68;4.40;;;;;;;;;;1035921;28;20026;-22
2023/04/01 00:56:26;;;;;;;21.88;4.95;;;;;;;;;;1035984;28;20030;-21
2023/04/01 00:56:59;;;;;;;10.85;5.10;;;;;;;;;;1036037;28;20022;-19
2023/04/01 00:57:32;;;;;;;11.00;5.25;;;;;;;;;;1034759;28;20031;-17
2023/04/01 00:58:05;;;;;;;19.38;4.60;;;;;;;;;;1036108;28;20022;-19
2023/04/01 00:58:38;;;;;;;11.68;4.35;;;;;;;;;;1035670;28;20029;-19
2023/04/01 00:59:13;;;;;;;13.07;5.53;;;;;;;;;;1035390;28;20076;-20
2023/04/01 00:59:45;;;;;;;19.45;5.43;;;;;;;;;;1035801;28;20025;-20
2023/04/01 01:00:15;;;;;;;12.18;4.85;;;;;;;;;;1035261;28;20044;-18
2023/04/01 01:00:47;;;;;;;18.80;8.57;;;;;;;;;;1035855;28;20025;-20
2023/04/01 01:01:19;;;;;;;13.10;6.75;;;;;;;;;;1036011;28;20026;-17
2023/04/01 01:01:50;;;;;;;8.63;5.47;;;;;;;;;;1035571;28;20196;-18
2023/04/01 01:02:21;;;;;;;32.42;5.57;;;;;;;;;;1034965;28;20521;-21
2023/04/01 01:02:51;;;;;;;22.27;7.32;;;;;;;;;;1035024;28;20034;-19
2023/04/01 01:03:22;;;;;;;8.73;5.05;;;;;;;;;;1035043;28;20470;-19
2023/04/01 01:03:52;;;;;;;6.07;3.67;;;;;;;;;;1035845;28;20056;-20
2023/04/01 01:04:23;;;;;;;6.32;3.97;;;;;;;;;;1036090;28;20020;-16
2023/04/01 01:04:53;;;;;;;9.82;4.88;;;;;;;;;;1035715;28;20021;-21
2023/04/01 01:05:29;;;;;;;6.32;5.18;;;;;;;;;;1036047;28;20111;-19
2023/04/01 01:06:00;;;;;;;8.98;6.43;;;;;;;;;;1036054;28;20030;-19
2023/04/01 01:06:39;;;;;;;9.45;4.50;;;;;;;;;;1035796;28;20477;-19
2023/04/01 01:07:19;;;;;;;10.75;4.18;;;;;;;;;;1035879;28;20036;-21
2023/04/01 01:07:52;;;;;;;7.22;5.38;;;;;;;;;;1035926;28;20036;-17
2023/04/01 01:08:36;;;;;;;13.18;5.95;;;;;;;;;;1035139;28;20026;-22
2023/04/01 01:09:28;;;;;;;9.80;6.95;;;;;;;;;;1036140;28;20058;-19
2023/04/01 01:09:58;;;;;;;7.57;5.03;;;;;;;;;;1035846;28;20389;-20
2023/04/01 01:10:35;;;;;;;9.77;5.47;;;;;;;;;;1035089;28;20026;-23
2023/04/01 01:11:08;;;;;;;11.70;6.95;;;;;;;;;;1035762;28;20022;-20
2023/04/01 01:11:41;;;;;;;23.05;6.57;;;;;;;;;;1034537;28;20028;-22
2023/04/01 01:12:30;;;;;;;12.20;6.53;;;;;;;;;;1035623;28;20026;-20
2023/04/01 01:13:15;;;;;;;13.32;6.32;;;;;;;;;;1035183;28;20017;-20
2023/04/01 01:14:09;;;;;;;50.33;9.65;;;;;;;;;;1035072;28;20030;-18
2023/04/01 01:14:45;;;;;;;11.07;6.78;;;;;;;;;;1027276;28;20030;-17
2023/04/01 01:15:44;;;;;;;14.05;6.43;;;;;;;;;;1034883;28;20049;-19
2023/04/01 01:16:24;;;;;;;20.75;11.07;;;;;;;;;;1026743;28;20098;-20
2023/04/01 01:17:01;;;;;;;33.33;12.38;;;;;;;;;;1030280;28;20396;-21
2023/04/01 01:17:49;;;;;;;27.55;14.35;;;;;;;;;;1035011;28;20385;-21
2023/04/01 01:18:25;;;;;;;31.33;14.60;;;;;;;;;;1035781;28;20036;-20
2023/04/01 01:18:55;;;;;;;33.35;15.77;;;;;;;;;;1034306;28;20026;-20
2023/04/01 01:19:47;;;;;;;35.35;14.93;;;;;;;;;;1035065;28;21218;-19
2023/04/01 01:20:21;;;;;;;21.30;11.40;;;;;;;;;;1035374;28;20102;-19
2023/04/01 01:21:11;;;;;;;40.05;13.60;;;;;;;;;;1035409;28;20022;-18
2023/04/01 01:21:41;;;;;;;;;;;;;;;;;;1035554;28;20943;-20
2023/04/01 01:22:30;;;;;;;21.02;8.73;;;;;;;;;;1035472;28;19909;-21
2023/04/01 01:23:10;;;;;;;39.70;9.32;;;;;;;;;;1035089;28;20360;-17
2023/04/01 01:23:50;;;;;;;14.25;7.78;;;;;;;;;;1034977;28;20026;-19
2023/04/01 01:24:20;;;;;;;16.35;10.30;;;;;;;;;;1035476;28;20117;-20
2023/04/01 01:24:56;;;;;;;19.98;7.78;;;;;;;;;;1035162;28;20025;-19
2023/04/01 01:25:34;;;;;;;13.40;6.28;;;;;;;;;;1035403;28;20132;-19
2023/04/01 01:26:05;;;;;;;8.57;4.68;;;;;;;;;;1034968;28;20079;-23
2023/04/01 01:26:38;;;;;;;9.90;6.43;;;;;;;;;;1034219;28;20072;-21
2023/04/01 01:27:14;;;;;;;11.25;4.50;;;;;;;;;;1035562;28;20054;-19
2023/04/01 01:27:49;;;;;;;15.52;5.57;;;;;;;;;;1035151;28;20394;-22
2023/04/01 01:28:31;;;;;;;12.40;5.28;;;;;;;;;;1035066;28;20068;-18
2023/04/01 01:29:04;;;;;;;9.85;5.22;;;;;;;;;;1034459;28;20022;-19
2023/04/01 01:29:35;;;;;;;18.20;6.53;;;;;;;;;;1032930;28;20053;-21
2023/04/01 01:30:16;;;;;;;11.93;5.72;;;;;;;;;;1033968;28;20025;-22
2023/04/01 01:30:52;;;;;;;8.15;4.43;;;;;;;;;;1033812;28;20022;-21
2023/04/01 01:31:22;;;;;;;17.77;5.63;;;;;;;;;;1035390;28;20026;-23
2023/04/01 01:32:19;;;;;;;16.08;6.07;;;;;;;;;;1035129;28;20030;-23
2023/04/01 01:33:05;;;;;;;25.63;4.45;;;;;;;;;;1022174;29;20036;-21
2023/04/01 01:33:44;;;;;;;12.07;5.47;;;;;;;;;;1034259;28;20037;-17
2023/04/01 01:34:30;;;;;;;12.80;6.93;;;;;;;;;;1034518;28;20995;-20
2023/04/01 01:35:09;;;;;;;13.15;6.88;;;;;;;;;;1030875;28;20501;-19
2023/04/01 01:35:48;;;;;;;11.98;6.28;;;;;;;;;;1030950;28;20023;-18
2023/04/01 01:36:20;;;;;;;8.32;5.43;;;;;;;;;;1034800;28;20033;-19
2023/04/01 01:36:55;;;;;;;8.73;6.30;;;;;;;;;;1030542;28;20034;-24
2023/04/01 01:37:27;;;;;;;5.38;3.90;;;;;;;;;;1030840;28;20046;-20
2023/04/01 01:38:00;;;;;;;14.02;6.60;;;;;;;;;;1030539;28;20506;-22
2023/04/01 01:38:33;;;;;;;13.68;5.50;;;;;;;;;;1032039;28;20030;-22
2023/04/01 01:39:04;;;;;;;15.18;4.88;;;;;;;;;;1033847;28;20545;-23
2023/04/01 01:39:36;;;;;;;14.40;6.40;;;;;;;;;;1034798;28;20568;-22
2023/04/01 01:40:08;;;;;;;8.07;5.78;;;;;;;;;;1034465;28;20026;-21
2023/04/01 01:40:40;;;;;;;18.15;5.68;;;;;;;;;;1034199;28;20029;-22
2023/04/01 01:41:12;;;;;;;11.65;5.43;;;;;;;;;;1033897;28;20022;-20
2023/04/01 01:41:45;;;;;;;12.60;6.10;;;;;;;;;;1035308;28;20021;-23
2023/04/01 01:42:16;;;;;;;13.18;4.72;;;;;;;;;;1034045;28;20018;-23
2023/04/01 01:42:50;;;;;;;18.52;5.40;;;;;;;;;;1034219;28;20104;-21
2023/04/01 01:43:23;;;;;;;9.60;4.43;;;;;;;;;;1034668;28;20033;-22
2023/04/01 01:43:54;;;;;;;17.40;7.90;;;;;;;;;;1034818;28;20113;-23
2023/04/01 01:44:26;;;;;;;16.17;4.47;;;;;;;;;;1033830;28;20457;-23
2023/04/01 01:44:59;;;;;;;11.23;5.18;;;;;;;;;;1033880;28;20027;-20
2023/04/01 01:45:30;;;;;;;7.38;4.97;;;;;;;;;;1033917;28;20116;-24
2023/04/01 01:46:03;;;;;;;10.40;4.80;;;;;;;;;;1034355;28;20191;-24
2023/04/01 01:46:33;;;;;;;20.63;6.97;;;;;;;;;;1034247;28;20482;-21
2023/04/01 01:47:05;;;;;;;15.10;5.57;;;;;;;;;;1033760;28;20022;-23
2023/04/01 01:47:35;;;;;;;11.38;5.53;;;;;;;;;;1034496;28;20450;-20
2023/04/01 01:48:06;;;;;;;15.98;5.22;;;;;;;;;;1033840;28;20026;-21
2023/04/01 01:48:38;;;;;;;18.00;5.82;;;;;;;;;;1034973;28;20018;-23
2023/04/01 01:49:10;;;;;;;10.30;4.10;;;;;;;;;;1033825;28;20076;-21
2023/04/01 01:49:42;;;;;;;16.85;5.93;;;;;;;;;;1034697;28;20048;-23
2023/04/01 01:50:14;;;;;;;20.58;4.18;;;;;;;;;;1034856;28;20124;-23
2023/04/01 01:50:45;;;;;;;16.55;6.72;;;;;;;;;;1035316;28;20025;-23
2023/04/01 01:51:17;;;;;;;13.93;6.50;;;;;;;;;;1034402;28;20113;-19
2023/04/01 01:51:48;;;;;;;12.98;4.60;;;;;;;;;;1035130;28;20076;-23
2023/04/01 01:52:18;;;;;;;14.13;6.65;;;;;;;;;;1035478;28;20552;-21
2023/04/01 01:52:49;;;;;;;10.70;5.70;;;;;;;;;;1034767;28;20105;-21
2023/04/01 01:53:20;;;;;;;9.65;6.20;;;;;;;;;;1034829;28;20030;-21
2023/04/01 01:53:50;;;;;;;14.90;6.38;;;;;;;;;;1032294;28;20125;-24
2023/04/01 01:54:21;;;;;;;14.48;5.30;;;;;;;;;;1033832;28;20061;-18
2023/04/01 01:54:53;;;;;;;29.17;5.90;;;;;;;;;;1034318;28;20030;-21
2023/04/01 01:55:50;;;;;;;7.20;3.50;;;;;;;;;;1035252;28;20076;-22
2023/04/01 01:56:23;;;;;;;17.00;4.75;;;;;;;;;;1031802;28;20069;-21
2023/04/01 01:57:03;;;;;;;17.00;6.68;;;;;;;;;;1033337;28;20038;-23
2023/04/01 01:57:36;;;;;;;12.45;5.93;;;;;;;;;;1034411;28;21007;-20
2023/04/01 01:58:15;;;;;;;8.55;5.72;;;;;;;;;;1033914;28;21434;-20
2023/04/01 01:58:48;;;;;;;10.13;4.72;;;;;;;;;;1032117;28;20026;-20
2023/04/01 01:59:20;;;;;;;23.75;6.40;;;;;;;;;;1032852;28;20034;-22
2023/04/01 01:59:52;;;;;;;15.85;5.63;;;;;;;;;;1034847;28;20041;-20
2023/04/01 02:00:23;;;;;;;9.13;4.35;;;;;;;;;;1033530;28;20022;-22
2023/04/01 02:01:01;;;;;;;18.50;6.18;;;;;;;;;;1033946;28;20034;-24
2023/04/01 02:01:33;;;;;;;6.18;3.80;;;;;;;;;;1034412;28;20025;-22
2023/04/01 02:02:07;;;;;;;10.27;4.70;;;;;;;;;;1034376;28;20490;-24
2023/04/01 02:02:42;;;;;;;10.80;3.55;;;;;;;;;;1034914;28;20022;-22
2023/04/01 02:03:14;;;;;;;19.38;5.55;;;;;;;;;;1035080;28;20593;-23
2023/04/01 02:03:45;;;;;;;8.90;3.90;;;;;;;;;;1034699;28;20577;-21
2023/04/01 02:04:17;;;;;;;11.07;4.22;;;;;;;;;;1034155;28;21365;-22
2023/04/01 02:04:49;;;;;;;6.18;5.13;;;;;;;;;;1033200;28;20030;-23
2023/04/01 02:05:21;;;;;;;16.08;5.18;;;;;;;;;;1034257;28;20029;-21
2023/04/01 02:05:54;;;;;;;8.35;6.05;;;;;;;;;;1034841;28;20080;-22
2023/04/01 02:06:31;;;;;;;8.57;4.32;;;;;;;;;;1035640;28;20041;-19
2023/04/01 02:07:04;;;;;;;11.63;4.78;;;;;;;;;;1036698;28;20112;-22
2023/04/01 02:07:35;;;;;;;10.65;5.60;;;;;;;;;;1036076;28;20022;-23
2023/04/01 02:08:15;;;;;;;8.70;3.67;;;;;;;;;;1036535;28;20421;-21
2023/04/01 02:08:48;;;;;;;25.13;5.10;;;;;;;;;;1035215;28;20026;-23
2023/04/01 02:09:19;;;;;;;7.15;4.20;;;;;;;;;;1034900;28;20393;-23
2023/04/01 02:09:50;;;;;;;5.75;4.15;;;;;;;;;;1035090;28;20037;-20
2023/04/01 02:10:22;;;;;;;6.82;4.43;;;;;;;;;;1034670;28;20096;-19
2023/04/01 02:10:58;;;;;;;10.63;3.67;;;;;;;;;;1034393;28;20033;-21
2023/04/01 02:11:35;;;;;;;12.30;4.85;;;;;;;;;;1034106;28;20030;-24
2023/04/01 02:12:08;;;;;;;12.63;5.38;;;;;;;;;;1034527;28;20029;-23
2023/04/01 02:12:39;;;;;;;9.10;4.47;;;;;;;;;;1030997;28;20371;-20
2023/04/01 02:13:16;;;;;;;9.38;4.22;;;;;;;;;;1029228;28;20717;-20
2023/04/01 02:13:56;;;;;;;8.75;3.75;;;;;;;;;;1030139;28;20902;-23
2023/04/01 02:14:26;;;;;;;;;;;;;;;;;;1031895;28;20509;-20
2023/04/01 02:15:01;;;;;;;5.10;4.05;;;;;;;;;;1033105;28;19909;-23
2023/04/01 02:15:42;;;;;;;16.33;4.68;;;;;;;;;;1034654;28;20032;-20
2023/04/01 02:16:20;;;;;;;10.70;4.32;;;;;;;;;;1030819;28;20848;-21
2023/04/01 02:17:01;;;;;;;8.75;4.43;;;;;;;;;;1031749;28;20025;-19
2023/04/01 02:17:33;;;;;;;13.65;5.00;;;;;;;;;;1028156;28;20027;-22
2023/04/01 02:18:04;;;;;;;6.13;4.50;;;;;;;;;;1027009;28;20459;-19
2023/04/01 02:18:37;;;;;;;13.20;5.43;;;;;;;;;;1029306;28;20158;-22
2023/04/01 02:19:08;;;;;;;6.70;4.43;;;;;;;;;;1031470;28;20033;-23
2023/04/01 02:19:43;;;;;;;7.28;4.70;;;;;;;;;;1038641;28;20401;-20
2023/04/01 02:20:20;;;;;;;15.02;6.47;;;;;;;;;;1038934;28;20030;-20
2023/04/01 02:20:51;;;;;;;20.92;4.18;;;;;;;;;;1033396;28;20097;-22
2023/04/01 02:21:24;;;;;;;7.45;4.60;;;;;;;;;;1032905;28;20028;-22
2023/04/01 02:22:01;;;;;;;12.00;4.32;;;;;;;;;;1029598;28;20073;-22
2023/04/01 02:22:33;;;;;;;9.65;5.68;;;;;;;;;;1033235;28;20026;-22
2023/04/01 02:23:04;;;;;;;27.38;4.60;;;;;;;;;;1034966;28;20030;-23
2023/04/01 02:23:36;;;;;;;21.75;5.82;;;;;;;;;;1034680;28;20117;-22
2023/04/01 02:24:10;;;;;;;7.50;5.07;;;;;;;;;;1033974;28;20026;-19
2023/04/01 02:24:41;;;;;;;14.00;4.63;;;;;;;;;;1034231;28;20038;-17
2023/04/01 02:25:15;;;;;;;5.40;4.18;;;;;;;;;;1035486;28;20072;-23
2023/04/01 02:25:47;;;;;;;14.90;4.63;;;;;;;;;;1034569;28;20032;-22
2023/04/01 02:26:18;;;;;;;9.13;3.75;;;;;;;;;;1035052;28;20425;-22
2023/04/01 02:26:49;;;;;;;15.05;7.78;;;;;;;;;;1034161;28;20112;-20
2023/04/01 02:27:20;;;;;;;9.43;4.20;;;;;;;;;;1034485;28;20022;-23
2023/04/01 02:27:51;;;;;;;20.55;5.13;;;;;;;;;;1034524;28;20038;-21
2023/04/01 02:28:24;;;;;;;9.65;5.05;;;;;;;;;;1034401;28;20390;-20
2023/04/01 02:28:55;;;;;;;14.85;5.28;;;;;;;;;;1029905;28;20030;-23
2023/04/01 02:29:26;;;;;;;15.60;4.78;;;;;;;;;;1034176;28;20518;-22
2023/04/01 02:29:58;;;;;;;10.32;4.57;;;;;;;;;;1034654;28;20032;-18
2023/04/01 02:30:29;;;;;;;11.98;4.63;;;;;;;;;;1033568;28;20038;-24
2023/04/01 02:31:02;;;;;;;10.15;4.85;;;;;;;;;;1034823;28;20171;-22
2023/04/01 02:31:33;;;;;;;4.32;3.53;;;;;;;;;;1034420;28;20029;-20
2023/04/01 02:32:05;;;;;;;27.00;8.07;;;;;;;;;;1033571;28;20026;-19
2023/04/01 02:32:38;;;;;;;16.58;5.05;;;;;;;;;;1031818;28;20034;-21
2023/04/01 02:33:09;;;;;;;10.20;5.88;;;;;;;;;;1029722;28;20034;-19
2023/04/01 02:33:40;;;;;;;18.10;5.40;;;;;;;;;;1029215;28;20018;-20
2023/04/01 02:34:11;;;;;;;14.43;5.18;;;;;;;;;;1031327;28;20563;-22
2023/04/01 02:34:42;;;;;;;27.25;6.90;;;;;;;;;;1033111;28;20036;-23
2023/04/01 02:35:15;;;;;;;12.85;4.68;;;;;;;;;;1041529;28;20033;-23
2023/04/01 02:35:46;;;;;;;13.82;4.78;;;;;;;;;;1038924;28;20033;-19
2023/04/01 02:36:17;;;;;;;11.63;5.40;;;;;;;;;;1036710;28;20033;-21
2023/04/01 02:36:49;;;;;;;5.30;3.25;;;;;;;;;;1037093;28;20026;-19
2023/04/01 02:37:20;;;;;;;5.15;4.32;;;;;;;;;;1034713;28;20029;-23
2023/04/01 02:37:52;;;;;;;18.90;7.15;;;;;;;;;;1034786;28;20030;-21
2023/04/01 02:38:23;;;;;;;9.40;4.82;;;;;;;;;;1034961;28;20030;-23
2023/04/01 02:38:56;;;;;;;9.52;5.97;;;;;;;;;;1033012;28;20057;-20
2023/04/01 02:39:27;;;;;;;8.88;4.20;;;;;;;;;;1033233;28;20561;-21
2023/04/01 02:40:02;;;;;;;12.68;6.10;;;;;;;;;;1029055;28;20034;-23
2023/04/01 02:40:43;;;;;;;6.80;4.70;;;;;;;;;;1030495;28;20030;-21
2023/04/01 02:41:14;;;;;;;9.52;6.20;;;;;;;;;;1031540;28;20413;-22
2023/04/01 02:41:45;;;;;;;18.85;6.82;;;;;;;;;;1032378;28;20038;-23
2023/04/01 02:42:17;;;;;;;11.80;6.07;;;;;;;;;;1035061;28;20026;-22
2023/04/01 02:42:52;;;;;;;11.07;5.03;;;;;;;;;;1030221;28;20035;-22
2023/04/01 02:43:25;;;;;;;16.70;6.93;;;;;;;;;;1032335;28;20025;-21
2023/04/01 02:43:59;;;;;;;15.40;4.72;;;;;;;;;;1034363;28;20021;-23
2023/04/01 02:44:30;;;;;;;11.65;6.80;;;;;;;;;;1036203;28;20121;-21
2023/04/01 02:45:01;;;;;;;18.48;5.97;;;;;;;;;;1036710;28;20067;-21
2023/04/01 02:45:31;;;;;;;21.85;5.72;;;;;;;;;;1037259;28;20053;-19
2023/04/01 02:46:02;;;;;;;10.13;5.45;;;;;;;;;;1033847;28;20034;-21
2023/04/01 02:46:32;;;;;;;11.60;6.20;;;;;;;;;;1031505;28;20036;-20
2023/04/01 02:47:03;;;;;;;13.77;3.75;;;;;;;;;;1041698;28;20075;-19
2023/04/01 02:47:35;;;;;;;21.75;6.65;;;;;;;;;;1041743;28;20036;-23
2023/04/01 02:48:08;;;;;;;12.32;6.40;;;;;;;;;;1037296;28;20103;-22
2023/04/01 02:48:39;;;;;;;16.52;6.15;;;;;;;;;;1032659;28;20025;-21
2023/04/01 02:49:10;;;;;;;16.23;5.78;;;;;;;;;;1029654;28;20402;-17
2023/04/01 02:49:41;;;;;;;18.45;5.53;;;;;;;;;;1029198;28;20461;-20
2023/04/01 02:50:12;;;;;;;14.40;6.55;;;;;;;;;;1034009;28;20030;-18
2023/04/01 02:50:42;;;;;;;12.25;6.40;;;;;;;;;;1034271;28;20072;-20
2023/04/01 02:51:13;;;;;;;12.00;7.68;;;;;;;;;;1034421;28;20064;-21
2023/04/01 02:51:44;;;;;;;23.02;6.82;;;;;;;;;;1033469;28;20048;-19
2023/04/01 02:52:16;;;;;;;12.80;6.18;;;;;;;;;;1034217;28;20144;-19
2023/04/01 02:52:46;;;;;;;14.35;6.15;;;;;;;;;;1033400;28;20041;-23
2023/04/01 02:53:17;;;;;;;16.33;5.03;;;;;;;;;;1031481;28;20026;-21
2023/04/01 02:53:48;;;;;;;11.65;6.72;;;;;;;;;;1028908;28;20856;-21
2023/04/01 02:54:20;;;;;;;11.88;7.15;;;;;;;;;;1033008;28;20065;-21
2023/04/01 02:54:54;;;;;;;12.90;5.65;;;;;;;;;;1029554;28;20062;-22
2023/04/01 02:55:25;;;;;;;26.63;5.95;;;;;;;;;;1028727;28;20018;-21
2023/04/01 02:55:57;;;;;;;17.08;6.10;;;;;;;;;;1036394;28;20037;-20
2023/04/01 02:56:30;;;;;;;10.43;5.55;;;;;;;;;;1033365;28;20131;-20
2023/04/01 02:57:01;;;;;;;10.30;5.50;;;;;;;;;;1038531;28;20499;-22
2023/04/01 02:57:32;;;;;;;12.95;7.05;;;;;;;;;;1035684;28;20044;-21
2023/04/01 02:58:02;;;;;;;18.83;5.38;;;;;;;;;;1033784;28;20576;-21
2023/04/01 02:58:35;;;;;;;9.57;6.07;;;;;;;;;;1032897;28;20041;-23
2023/04/01 02:59:18;;;;;;;22.58;7.13;;;;;;;;;;1034313;28;20029;-23
2023/04/01 02:59:53;;;;;;;17.38;6.13;;;;;;;;;;1029452;28;20432;-21
2023/04/01 03:00:25;;;;;;;14.77;4.65;;;;;;;;;;1025900;28;20109;-20
2023/04/01 03:01:03;;;;;;;16.25;6.45;;;;;;;;;;1027393;28;20035;-21
2023/04/01 03:01:37;;;;;;;20.48;8.13;;;;;;;;;;1031819;28;20014;-23
2023/04/01 03:02:11;;;;;;;30.70;7.13;;;;;;;;;;1030308;28;20532;-23
2023/04/01 03:02:49;;;;;;;21.73;8.05;;;;;;;;;;1026235;28;20026;-23
2023/04/01 03:03:24;;;;;;;12.40;5.95;;;;;;;;;;1025496;28;20034;-20
2023/04/01 03:03:55;;;;;;;11.27;5.70;;;;;;;;;;1034457;28;20134;-22
2023/04/01 03:04:26;;;;;;;11.60;6.22;;;;;;;;;;1033016;28;20038;-20
2023/04/01 03:04:57;;;;;;;23.38;7.22;;;;;;;;;;1032777;28;20135;-19
2023/04/01 03:05:30;;;;;;;12.77;7.13;;;;;;;;;;1028269;28;20081;-20
2023/04/01 03:06:11;;;;;;;22.02;6.82;;;;;;;;;;1026982;28;20026;-21
2023/04/01 03:06:42;;;;;;;31.67;5.20;;;;;;;;;;1028071;28;20433;-19
2023/04/01 03:07:13;;;;;;;18.25;5.93;;;;;;;;;;1032509;28;20375;-21
2023/04/01 03:07:45;;;;;;;16.08;7.40;;;;;;;;;;1032235;28;20092;-23
2023/04/01 03:08:18;;;;;;;24.10;8.63;;;;;;;;;;1032994;28;20072;-23
2023/04/01 03:08:53;;;;;;;16.58;7.03;;;;;;;;;;1031934;28;20036;-21
2023/04/01 03:09:26;;;;;;;9.48;7.22;;;;;;;;;;1032630;28;20121;-22
2023/04/01 03:10:01;;;;;;;19.55;6.90;;;;;;;;;;1027072;28;20064;-21
2023/04/01 03:10:39;;;;;;;21.70;7.75;;;;;;;;;;1031733;28;20074;-21
2023/04/01 03:11:13;;;;;;;10.52;4.22;;;;;;;;;;1027573;28;20579;-22
2023/04/01 03:11:46;;;;;;;12.40;6.40;;;;;;;;;;1025316;28;20030;-23
2023/04/01 03:12:19;;;;;;;15.32;6.80;;;;;;;;;;1027742;28;20048;-22
2023/04/01 03:12:52;;;;;;;14.85;8.18;;;;;;;;;;1030904;28;20034;-22
2023/04/01 03:13:28;;;;;;;24.80;9.52;;;;;;;;;;1031501;28;20018;-24
2023/04/01 03:14:02;;;;;;;25.40;6.82;;;;;;;;;;1032986;28;20481;-20
2023/04/01 03:14:32;;;;;;;15.65;6.45;;;;;;;;;;1030566;28;20032;-22
2023/04/01 03:15:14;;;;;;;17.35;6.43;;;;;;;;;;1029561;28;20458;-21
2023/04/01 03:15:49;;;;;;;11.55;6.68;;;;;;;;;;1032108;28;20026;-21
2023/04/01 03:16:25;;;;;;;12.63;6.65;;;;;;;;;;1028990;28;20030;-23
2023/04/01 03:17:00;;;;;;;22.65;7.68;;;;;;;;;;1029908;28;20026;-23
2023/04/01 03:17:33;;;;;;;14.90;6.68;;;;;;;;;;1030619;28;20913;-22